Terminal Aerodrome Forecast
Issued by NWS

Home | Current Version | Previous Version | Text Only | Print | Product List | Glossary On
Versions: 1 2 3 4 5 6 7 8 9 10 11 12 13 14 15 16 17 18 19 20 21 22 23 24 25 26 27
000
FTUS42 KMFL 291141
TAFFXE
TAF
KFXE 291141Z 2912/3012 VRB02KT P6SM FEW030 SCT250
     FM291700 07007KT P6SM VCTS SCT030CB SCT050 SCT250
     FM292100 09011KT P6SM FEW030 SCT060 BKN250
     FM300200 VRB02KT P6SM FEW030 BKN250=

USA.gov is the U.S. government's official web portal to all federal, state and local government web resources and services.